This is the latest recevied weather packets stored in our database for station/object ON5MM-5. If no packets are shown the sender has not sent any weather packets the latest 10 day(s).
| Time | Temp. | Humidity | Pressure | Rain* | Wind** | Luminosity | Snow |
|---|---|---|---|---|---|---|---|
| 1777700403 | 15° C | 46% | 1021.4 hPa | 0 mm | 2.24 m/s, ° | - | - |
| 1777700103 | 15° C | 46% | 1021.4 hPa | 0 mm | 1.79 m/s, ° | - | - |
| 1777699802 | 15° C | 44% | 1021.4 hPa | 0 mm | 2.68 m/s, ° | - | - |
| 1777699502 | 15° C | 44% | 1021.4 hPa | 0 mm | 2.24 m/s, ° | - | - |
| 1777699202 | 15° C | 45% | 1021.4 hPa | 0 mm | 2.24 m/s, ° | - | - |
| 1777698902 | 14.44° C | 46% | 1021.5 hPa | 0 mm | 2.24 m/s, ° | - | - |
| 1777698603 | 14.44° C | 45% | 1021.5 hPa | 0 mm | 2.68 m/s, ° | - | - |
| 1777698302 | 13.89° C | 47% | 1021.5 hPa | 0 mm | 1.79 m/s, ° | - | - |
| 1777698003 | 13.33° C | 47% | 1021.5 hPa | 0 mm | 1.79 m/s, ° | - | - |
| 1777697702 | 13.89° C | 45% | 1021.4 hPa | 0 mm | 1.34 m/s, ° | - | - |
| 1777697402 | 13.89° C | 44% | 1021.4 hPa | 0 mm | 1.79 m/s, ° | - | - |
| 1777697102 | 13.33° C | 44% | 1021.3 hPa | 0 mm | 1.79 m/s, ° | - | - |
| 1777696802 | 13.33° C | 44% | 1021.3 hPa | 0 mm | 1.79 m/s, ° | - | - |
| 1777696502 | 13.33° C | 43% | 1021.2 hPa | 0 mm | 1.34 m/s, ° | - | - |
| 1777696203 | 12.78° C | 44% | 1021.2 hPa | 0 mm | 0.89 m/s, ° | - | - |
| 1777695902 | 12.78° C | 44% | 1021.1 hPa | 0 mm | 0 m/s | - | - |
| 1777695603 | 12.22° C | 47% | 1021.2 hPa | 0 mm | 0 m/s | - | - |
| 1777695302 | 11.11° C | 51% | 1021.3 hPa | 0 mm | 0 m/s | - | - |
| 1777695002 | 10.56° C | 52% | 1021.3 hPa | 0 mm | 0 m/s | - | - |
| 1777694702 | 11.11° C | 52% | 1021.3 hPa | 0 mm | 1.34 m/s, ° | - | - |
| 1777694403 | 11.67° C | 51% | 1021.4 hPa | 0 mm | 1.34 m/s, ° | - | - |
| 1777694103 | 11.67° C | 49% | 1021.4 hPa | 0 mm | 1.34 m/s, ° | - | - |
| 1777693802 | 13.33° C | 45% | 1021.6 hPa | 0 mm | 2.24 m/s, ° | - | - |
| 1777693502 | 12.78° C | 45% | 1021.6 hPa | 0 mm | 2.24 m/s, ° | - | - |
| 1777693203 | 11.67° C | 48% | 1021.4 hPa | 0 mm | 1.34 m/s, ° | - | - |
* Rain latest hour (hover to see other rain measurements)
** Current wind speed in m/s (hover to see current wind gust speed)